KLEX METAR and TAF | Updated Today

KLEX METAR

Blue Grass Airport

Observation time: 58 min. ago

KLEX 301654Z 25010KT 10SM CLR 11/02 A3008 RMK AO2 SLP187 T01110017

Need help? Read our tutorial on how to read METARs or read the parsed version below.

Blue Grass Airport (KLEX) METAR

  • Weather conditions on Tue, 30 Nov 2021 16:54:00 +0000 (58 min. ago):
  • Present conditions: Dry
  • Clouds: Clear skies
  • Visibility: 16093 meters
  • Wind: 250 degrees at 10 knots
  • Temperature: 11 celsius
  • Dew point: 2 celsius
  • Pressure: 30.08 inHg
  • Remarks: AO2 SLP187 T01110017


Useful to know...

KLEX TAF

Blue Grass Airport

KLEX 301139Z 3012/0112 22011KT P6SM FEW250 FM301500 26010G18KT P6SM SCT250 FM302100 27006KT P6SM SCT250 FM010000 VRB03KT P6SM BKN200
Observation time: 6:13 hr. ago
Need help? Read our tutorial on how to read TAFs or read the parsed version below.

Parsed version of TAF for Blue Grass Airport (KLEX)

  • From 30 November at 12:00 UTC, to day 01 of the month at 12:00 UTC
  • Clouds: A few at 7620 meters
  • Wind: 220 degrees at 11
  • From day 30 of the month at 15:00 UTC
  • Clouds: Scattered at 7620 meters
  • Wind: 260 degrees at 10
  • From day 30 of the month at 21:00 UTC
  • Clouds: Scattered at 7620 meters
  • Wind: 270 degrees at 6
  • From day 1 of the month at 00:00 UTC
  • Clouds: Broken sky at 6096 meters
  • Wind: Variable at 3

Airports near KLEX

KFFT Weather
Region: Frankfort

Capital City Airport

Not found in our database